Time;durP1;ratioP1;P1;durP2;ratioP2;P2;SDS_P1;SDS_P2;PMS_P1;PMS_P2;Temp;Humidity;BMP_temperature;BMP_pressure;BME280_temperature;BME280_humidity;BME280_pressure;Samples;Min_cycle;Max_cycle;Signal;HPM_P1;HPM_P2
2024/01/03 00:00:48;;;;;;;4.20;1.90;;;;;;;4.74;100.00;97177.00;271943;1277;22195;-89
2024/01/03 00:07:10;;;;;;;3.10;1.80;;;;;;;4.73;100.00;97175.08;271230;1277;22202;-89
2024/01/03 00:13:34;;;;;;;3.20;1.80;;;;;;;4.72;100.00;97170.49;269975;1278;22586;-90
2024/01/03 00:19:37;;;;;;;3.10;1.60;;;;;;;4.70;100.00;97166.61;268827;1278;23478;-89
2024/01/03 00:25:40;;;;;;;4.60;2.10;;;;;;;4.67;100.00;97155.46;272364;1278;22327;-90
2024/01/03 00:31:43;;;;;;;3.70;2.10;;;;;;;4.67;100.00;97149.80;272192;1277;22973;-89
2024/01/03 00:37:46;;;;;;;4.30;2.40;;;;;;;4.66;100.00;97143.98;272155;1278;23303;-89
2024/01/03 00:43:48;;;;;;;5.70;2.20;;;;;;;4.67;100.00;97135.32;272069;1277;22195;-90
2024/01/03 00:49:50;;;;;;;4.50;2.10;;;;;;;4.69;100.00;97126.42;270470;1277;23123;-89
2024/01/03 00:55:53;;;;;;;3.90;2.20;;;;;;;4.70;100.00;97121.16;269441;1276;22588;-89
2024/01/03 01:01:56;;;;;;;4.10;2.00;;;;;;;4.71;100.00;97116.59;270010;1277;22237;-91
2024/01/03 01:07:58;;;;;;;4.90;2.70;;;;;;;4.71;100.00;97108.55;272216;1275;22333;-89
2024/01/03 01:14:00;;;;;;;3.20;1.70;;;;;;;4.71;100.00;97096.85;270441;1278;22349;-90
2024/01/03 01:20:02;;;;;;;3.50;1.80;;;;;;;4.72;100.00;97087.63;272307;1277;22192;-89
2024/01/03 01:26:06;;;;;;;2.70;1.60;;;;;;;4.72;100.00;97080.20;272196;1277;23209;-90
2024/01/03 01:32:08;;;;;;;3.20;1.50;;;;;;;4.72;100.00;97065.65;272365;1278;22193;-89
2024/01/03 01:38:10;;;;;;;3.00;1.40;;;;;;;4.74;100.00;97046.83;269572;1277;22738;-90
2024/01/03 01:44:12;;;;;;;2.00;1.20;;;;;;;4.80;100.00;97039.88;271907;1280;23171;-88
2024/01/03 01:50:14;;;;;;;1.70;0.90;;;;;;;4.84;100.00;97026.09;270520;1276;22312;-89
2024/01/03 01:56:18;;;;;;;3.60;1.30;;;;;;;4.87;100.00;97016.58;272287;1277;22257;-89
2024/01/03 02:02:20;;;;;;;2.70;1.10;;;;;;;4.88;100.00;97006.28;272234;1277;22747;-89
2024/01/03 02:08:23;;;;;;;1.90;0.90;;;;;;;4.90;100.00;96990.88;272300;1274;22333;-89
2024/01/03 02:14:24;;;;;;;2.30;1.00;;;;;;;4.95;100.00;96981.72;270480;1279;22971;-88
2024/01/03 02:20:31;;;;;;;1.30;0.70;;;;;;;5.00;100.00;96978.25;269743;1278;23144;-89
2024/01/03 02:26:34;;;;;;;1.80;1.60;;;;;;;5.03;100.00;96978.57;271033;1280;23182;-89
2024/01/03 02:39:16;;;;;;;1.20;0.50;;;;;;;5.06;100.00;96964.30;263036;1277;22768;-88
2024/01/03 02:45:18;;;;;;;1.60;0.90;;;;;;;5.08;100.00;96957.10;271845;1281;22236;-88
2024/01/03 02:51:21;;;;;;;1.80;0.80;;;;;;;5.11;100.00;96950.12;271965;1278;23108;-87
2024/01/03 02:57:52;;;;;;;0.90;0.70;;;;;;;5.16;100.00;96944.08;271948;1283;22436;-88
2024/01/03 03:03:55;;;;;;;0.70;0.30;;;;;;;5.24;100.00;96936.16;272017;1281;22375;-89
2024/01/03 03:09:58;;;;;;;1.80;0.80;;;;;;;5.32;100.00;96934.07;271983;1283;22230;-88
2024/01/03 03:15:59;;;;;;;0.90;0.60;;;;;;;5.35;100.00;96929.87;272162;1280;22199;-87
2024/01/03 03:22:01;;;;;;;1.30;0.50;;;;;;;5.37;100.00;96913.52;272097;1278;22287;-87
2024/01/03 03:28:07;;;;;;;0.60;0.40;;;;;;;5.38;100.00;96915.22;271909;1278;23656;-87
2024/01/03 03:34:09;;;;;;;0.50;0.30;;;;;;;5.38;100.00;96912.81;271229;1278;228563;-87
2024/01/03 03:40:12;;;;;;;1.10;0.30;;;;;;;5.39;100.00;96910.57;271738;1281;22547;-87
2024/01/03 03:46:17;;;;;;;0.60;0.20;;;;;;;5.38;100.00;96914.44;270717;1280;22576;-86
2024/01/03 03:52:20;;;;;;;0.90;0.40;;;;;;;5.38;100.00;96919.16;269097;1283;22588;-86
2024/01/03 03:58:21;;;;;;;0.80;0.40;;;;;;;5.37;100.00;96919.33;269941;1278;22557;-87
2024/01/03 04:04:24;;;;;;;0.80;0.50;;;;;;;5.34;100.00;96909.33;269821;1280;22223;-88
2024/01/03 04:10:46;;;;;;;0.80;0.40;;;;;;;5.33;100.00;96910.73;269672;1281;22650;-87
2024/01/03 04:17:32;;;;;;;0.60;0.30;;;;;;;5.33;100.00;96910.58;271675;1281;23440;-88
2024/01/03 04:23:34;;;;;;;0.60;0.40;;;;;;;5.36;100.00;96914.30;271900;1279;22211;-87
2024/01/03 04:30:17;;;;;;;0.50;0.40;;;;;;;5.39;100.00;96918.16;271790;1286;23637;-87
2024/01/03 04:36:37;;;;;;;0.60;0.40;;;;;;;5.49;100.00;96919.70;271974;1280;22207;-88
2024/01/03 04:42:38;;;;;;;0.70;0.40;;;;;;;5.57;100.00;96923.16;271796;1281;22693;-85
2024/01/03 04:48:41;;;;;;;2.00;0.80;;;;;;;5.64;100.00;96927.57;271738;1280;22182;-86
2024/01/03 04:54:43;;;;;;;2.50;0.70;;;;;;;5.73;100.00;96930.26;271712;1279;22419;-86
2024/01/03 05:01:08;;;;;;;3.20;0.60;;;;;;;5.88;100.00;96936.60;271895;1279;22374;-87
2024/01/03 05:07:21;;;;;;;1.20;0.50;;;;;;;6.05;100.00;96940.10;272015;1283;22276;-87
2024/01/03 05:13:23;;;;;;;1.50;1.30;;;;;;;6.19;100.00;96931.52;271797;1280;22235;-86
2024/01/03 05:19:25;;;;;;;1.30;0.90;;;;;;;6.25;100.00;96932.64;271853;1280;22198;-87
2024/01/03 05:25:47;;;;;;;2.30;1.20;;;;;;;6.26;100.00;96935.67;271982;1279;22254;-87
2024/01/03 05:32:10;;;;;;;2.90;1.00;;;;;;;6.30;100.00;96941.48;272112;1285;22297;-86
2024/01/03 05:38:12;;;;;;;2.20;1.10;;;;;;;6.29;100.00;96947.84;271835;1280;22380;-86
2024/01/03 05:44:14;;;;;;;1.10;0.80;;;;;;;6.27;100.00;96949.70;272058;1284;22320;-86
2024/01/03 05:50:16;;;;;;;2.50;1.30;;;;;;;6.24;100.00;96957.17;271676;1280;23289;-86
2024/01/03 05:56:38;;;;;;;1.70;0.80;;;;;;;6.22;100.00;96954.86;271530;1279;22590;-86
2024/01/03 06:02:39;;;;;;;1.90;1.30;;;;;;;6.17;100.00;96953.87;269045;1280;22236;-86
2024/01/03 06:08:44;;;;;;;3.10;1.70;;;;;;;6.12;100.00;96955.98;269787;1281;22587;-87
2024/01/03 06:14:48;;;;;;;3.10;1.70;;;;;;;6.09;100.00;96961.59;270501;1281;22209;-86
2024/01/03 06:20:50;;;;;;;3.90;2.40;;;;;;;6.07;100.00;96963.39;271770;1281;22410;-87
2024/01/03 06:27:58;;;;;;;;;;;;;;;;;;;;;
2024/01/03 06:34:00;;;;;;;3.80;2.00;;;;;;;6.07;100.00;96974.32;271636;1284;22289;-87
2024/01/03 06:40:05;;;;;;;3.50;2.00;;;;;;;6.11;100.00;96977.02;271830;1280;22650;-87
2024/01/03 06:46:11;;;;;;;3.20;1.90;;;;;;;6.21;100.00;96973.48;271953;1280;22205;-87
2024/01/03 06:52:22;;;;;;;3.90;2.10;;;;;;;6.27;100.00;96981.92;271714;1277;22177;-86
2024/01/03 06:58:36;;;;;;;5.30;2.40;;;;;;;6.33;100.00;96988.81;271583;1280;22205;-87
2024/01/03 07:04:41;;;;;;;2.70;1.70;;;;;;;6.40;100.00;96990.18;271718;1279;22331;-86
2024/01/03 07:10:46;;;;;;;3.30;1.70;;;;;;;6.42;100.00;96998.80;271792;1280;22241;-87
2024/01/03 07:16:51;;;;;;;6.10;2.10;;;;;;;6.45;100.00;97001.04;271617;1276;22396;-87
2024/01/03 07:22:53;;;;;;;3.70;2.00;;;;;;;6.48;100.00;97010.41;271967;1285;22254;-86
2024/01/03 07:28:57;;;;;;;4.80;2.20;;;;;;;6.53;100.00;97013.27;271528;1280;22207;-86
2024/01/03 07:34:59;;;;;;;19.20;9.10;;;;;;;6.56;100.00;97008.44;271384;1280;23638;-86
2024/01/03 07:41:11;;;;;;;29.00;14.10;;;;;;;6.58;100.00;97008.11;270611;1280;22581;-86
2024/01/03 07:47:13;;;;;;;5.20;3.20;;;;;;;6.63;100.00;97006.76;269598;1280;22717;-87
2024/01/03 07:53:16;;;;;;;4.40;1.90;;;;;;;6.67;100.00;97009.69;269592;1280;23766;-87
2024/01/03 07:59:26;;;;;;;5.30;2.50;;;;;;;6.74;100.00;97018.11;269599;1280;22567;-88
2024/01/03 08:05:42;;;;;;;4.40;2.20;;;;;;;6.88;100.00;97022.94;269542;1280;23782;-87
2024/01/03 08:11:52;;;;;;;3.10;2.00;;;;;;;7.01;100.00;97034.83;269644;1280;22915;-86
2024/01/03 08:18:02;;;;;;;2.80;1.40;;;;;;;7.22;100.00;97033.06;269196;1278;23887;-87
2024/01/03 08:24:07;;;;;;;6.00;1.90;;;;;;;7.46;100.00;97030.71;271045;1280;23468;-88
2024/01/03 08:30:27;;;;;;;;;;;;;;;;;;;;;
2024/01/03 08:36:43;;;;;;;3.50;1.50;;;;;;;7.71;100.00;97032.34;271350;1277;22255;-86
2024/01/03 08:42:48;;;;;;;3.40;1.70;;;;;;;7.83;100.00;97043.60;271486;1277;22421;-87
2024/01/03 08:48:55;;;;;;;3.40;1.30;;;;;;;7.92;100.00;97055.90;271278;1277;22232;-87
2024/01/03 08:54:59;;;;;;;3.80;1.30;;;;;;;7.95;100.00;97080.70;271572;1280;23514;-87
2024/01/03 09:01:01;;;;;;;3.50;1.50;;;;;;;7.92;100.00;97085.63;271501;1278;22265;-87
2024/01/03 09:07:12;;;;;;;2.70;1.60;;;;;;;7.91;100.00;97082.91;271602;1276;23550;-87
2024/01/03 09:13:14;;;;;;;5.20;2.00;;;;;;;7.90;100.00;97083.31;271760;1285;23379;-87
2024/01/03 09:19:20;;;;;;;3.30;1.40;;;;;;;7.88;100.00;97076.71;271554;1277;22296;-86
2024/01/03 09:25:23;;;;;;;2.30;1.00;;;;;;;7.95;100.00;97068.23;271598;1277;22210;-87
2024/01/03 09:31:30;;;;;;;3.20;1.40;;;;;;;8.16;100.00;97069.30;271584;1279;22247;-87
2024/01/03 09:37:32;;;;;;;4.60;1.30;;;;;;;8.44;100.00;97072.45;271903;1278;22395;-87
2024/01/03 09:43:35;;;;;;;4.40;1.50;;;;;;;8.71;100.00;97072.58;271606;1280;22205;-87
2024/01/03 09:49:39;;;;;;;2.30;1.30;;;;;;;8.93;100.00;97071.85;271886;1280;23069;-88
2024/01/03 09:55:43;;;;;;;4.60;1.30;;;;;;;9.14;100.00;97077.65;271796;1278;22337;-87
2024/01/03 10:01:56;;;;;;;2.80;1.50;;;;;;;9.27;100.00;97082.46;271678;1277;22495;-88
2024/01/03 10:08:18;;;;;;;2.50;1.60;;;;;;;9.35;100.00;97083.42;271747;1277;23477;-86
2024/01/03 10:14:22;;;;;;;1.70;1.00;;;;;;;9.40;100.00;97079.38;271681;1278;22923;-88
2024/01/03 10:20:29;;;;;;;2.10;0.70;;;;;;;9.56;100.00;97075.23;272002;1284;22320;-87
2024/01/03 10:26:37;;;;;;;2.30;1.00;;;;;;;9.91;100.00;97076.39;271646;1284;22235;-87
2024/01/03 10:32:44;;;;;;;2.90;1.00;;;;;;;10.33;100.00;97072.38;271976;1280;22217;-88
2024/01/03 10:38:47;;;;;;;1.60;1.00;;;;;;;10.30;100.00;97080.89;271638;1279;23077;-87
2024/01/03 10:44:49;;;;;;;3.30;1.50;;;;;;;10.12;100.00;97085.34;271640;1277;23451;-87
2024/01/03 10:50:58;;;;;;;2.40;1.20;;;;;;;10.09;100.00;97088.67;271544;1276;23382;-88
2024/01/03 10:57:00;;;;;;;1.70;0.70;;;;;;;10.10;100.00;97090.14;271710;1280;22363;-89
2024/01/03 11:03:29;;;;;;;3.50;0.90;;;;;;;10.08;100.00;97086.11;271345;1279;22841;-87
2024/01/03 11:09:34;;;;;;;4.20;1.70;;;;;;;10.04;100.00;97082.02;271289;1277;22339;-88
2024/01/03 11:15:42;;;;;;;2.00;1.40;;;;;;;10.08;100.00;97083.39;271937;1284;22227;-89
2024/01/03 11:21:47;;;;;;;3.60;1.00;;;;;;;10.09;100.00;97090.55;271798;1280;23259;-89
2024/01/03 11:28:31;;;;;;;4.10;1.40;;;;;;;10.00;100.00;97091.80;271684;1280;22468;-87
2024/01/03 11:34:40;;;;;;;4.90;1.60;;;;;;;9.84;100.00;97083.85;271794;1278;23080;-89
2024/01/03 11:40:48;;;;;;;2.90;1.30;;;;;;;9.79;100.00;97079.55;271959;1269;23416;-88
2024/01/03 11:46:58;;;;;;;3.50;1.70;;;;;;;9.79;100.00;97078.15;271875;1279;22277;-87
2024/01/03 11:53:07;;;;;;;3.30;1.30;;;;;;;9.83;100.00;97077.61;271600;1278;22230;-88
2024/01/03 11:59:13;;;;;;;;;;;;;;;9.87;100.00;97078.39;271646;1282;23599;-87
2024/01/03 12:05:16;;;;;;;5.50;1.50;;;;;;;9.84;100.00;97080.88;271994;1285;22278;-87
2024/01/03 12:11:23;;;;;;;3.20;1.30;;;;;;;9.83;100.00;97084.25;271331;1277;22200;-87
2024/01/03 12:17:28;;;;;;;4.10;1.30;;;;;;;9.90;100.00;97080.30;271635;1278;22392;-87
2024/01/03 12:23:30;;;;;;;1.90;1.10;;;;;;;10.05;100.00;97080.21;271947;1273;22245;-86
2024/01/03 12:29:36;;;;;;;4.70;1.40;;;;;;;10.11;100.00;97078.11;271693;1283;22290;-88
2024/01/03 12:35:38;;;;;;;3.00;1.10;;;;;;;10.11;100.00;97074.20;271600;1282;22316;-86
2024/01/03 12:41:39;;;;;;;4.70;1.50;;;;;;;10.09;100.00;97070.17;271305;1273;22355;-87
2024/01/03 12:47:44;;;;;;;3.20;1.20;;;;;;;10.06;100.00;97074.65;271616;1278;22308;-87
2024/01/03 12:53:48;;;;;;;4.10;1.30;;;;;;;10.09;100.00;97069.38;271721;1279;22266;-86
2024/01/03 12:59:53;;;;;;;6.00;1.30;;;;;;;10.07;100.00;97076.20;272097;1280;22203;-88
2024/01/03 13:05:55;;;;;;;4.80;1.50;;;;;;;10.00;100.00;97080.36;271711;1280;22309;-88
2024/01/03 13:11:57;;;;;;;4.30;1.00;;;;;;;9.95;100.00;97081.33;270918;1278;22962;-88
2024/01/03 13:18:02;;;;;;;3.70;1.20;;;;;;;9.88;100.00;97090.11;270560;1278;22536;-88
2024/01/03 13:24:09;;;;;;;4.70;1.30;;;;;;;9.84;100.00;97095.70;271179;1278;22224;-88
2024/01/03 13:30:12;;;;;;;3.00;1.20;;;;;;;9.81;100.00;97098.03;271683;1280;23406;-88
2024/01/03 13:36:35;;;;;;;3.90;1.20;;;;;;;9.79;100.00;97105.95;271659;1278;22240;-87
2024/01/03 13:42:37;;;;;;;5.90;1.60;;;;;;;9.77;99.88;97103.64;271690;1279;22234;-87
2024/01/03 13:48:40;;;;;;;3.30;1.00;;;;;;;9.72;100.00;97109.02;271660;1279;23323;-87
2024/01/03 13:54:45;;;;;;;2.40;0.80;;;;;;;9.62;100.00;97109.64;271799;1279;22244;-88
2024/01/03 14:00:49;;;;;;;1.70;1.10;;;;;;;9.50;100.00;97112.40;271878;1283;22233;-88
2024/01/03 14:06:51;;;;;;;3.80;1.20;;;;;;;9.45;100.00;97111.98;271872;1278;22245;-87
2024/01/03 14:12:54;;;;;;;4.90;1.30;;;;;;;9.45;100.00;97111.99;271812;1279;23187;-88
2024/01/03 14:18:57;;;;;;;2.70;1.40;;;;;;;9.50;100.00;97112.63;272249;1280;22294;-87
2024/01/03 14:25:12;;;;;;;3.10;1.20;;;;;;;9.50;99.94;97110.75;271863;1265;22249;-88
2024/01/03 14:31:16;;;;;;;3.00;1.20;;;;;;;9.47;99.97;97114.63;271457;1280;22089;-88
2024/01/03 14:37:18;;;;;;;2.50;1.20;;;;;;;9.43;99.85;97130.14;270639;1278;22343;-87
2024/01/03 14:43:34;;;;;;;6.00;3.00;;;;;;;9.38;99.47;97137.61;270545;1277;22556;-87
2024/01/03 14:49:38;;;;;;;12.80;5.00;;;;;;;9.25;99.60;97137.87;271571;1277;22368;-87
2024/01/03 14:55:40;;;;;;;7.90;3.50;;;;;;;9.10;99.81;97127.46;271054;1282;22686;-86
2024/01/03 15:01:45;;;;;;;8.80;3.50;;;;;;;9.00;99.94;97130.55;271940;1280;22242;-87
2024/01/03 15:07:47;;;;;;;10.80;4.00;;;;;;;8.92;99.82;97135.70;271919;1278;22181;-87
2024/01/03 15:13:55;;;;;;;;;;;;;;;8.80;99.99;97129.69;271771;1272;22460;-87
2024/01/03 15:20:00;;;;;;;6.00;3.60;;;;;;;8.70;100.00;97128.32;271684;1280;22185;-87
2024/01/03 15:26:12;;;;;;;6.70;3.90;;;;;;;8.63;100.00;97133.32;271512;1278;22522;-86
2024/01/03 15:32:24;;;;;;;10.70;4.20;;;;;;;8.55;100.00;97135.35;271896;1279;23316;-87
2024/01/03 15:38:26;;;;;;;8.50;3.80;;;;;;;8.48;100.00;97130.29;271554;1278;188687;-88
2024/01/03 15:44:29;;;;;;;11.20;4.80;;;;;;;8.43;100.00;97126.67;271720;1277;23063;-88
2024/01/03 15:50:32;;;;;;;10.40;4.40;;;;;;;8.43;100.00;97122.24;271887;1280;22273;-88
2024/01/03 15:56:34;;;;;;;8.00;3.80;;;;;;;8.45;100.00;97119.71;271552;1277;22402;-88
2024/01/03 16:02:47;;;;;;;8.00;3.90;;;;;;;8.42;100.00;97126.45;271696;1277;22347;-87
2024/01/03 16:09:10;;;;;;;7.40;5.00;;;;;;;8.42;100.00;97132.54;271630;1274;22700;-88
2024/01/03 16:15:18;;;;;;;9.70;4.60;;;;;;;8.41;100.00;97130.75;271767;1277;23447;-88
2024/01/03 16:21:24;;;;;;;9.90;5.00;;;;;;;8.36;100.00;97127.69;271603;1278;22216;-86
2024/01/03 16:27:34;;;;;;;11.10;5.50;;;;;;;8.35;100.00;97138.76;271344;1277;22298;-88
2024/01/03 16:34:24;;;;;;;12.30;5.20;;;;;;;8.35;100.00;97146.40;271648;1278;23736;-87
2024/01/03 16:40:48;;;;;;;13.80;5.70;;;;;;;8.31;100.00;97158.89;271718;1277;22480;-86
2024/01/03 16:47:42;;;;;;;10.80;5.50;;;;;;;8.16;100.00;97151.59;271591;1280;22239;-87
2024/01/03 16:53:58;;;;;;;13.00;5.20;;;;;;;8.00;100.00;97156.55;271902;1277;22288;-87
2024/01/03 17:00:11;;;;;;;11.80;4.60;;;;;;;7.87;100.00;97160.56;271932;1278;22854;-88
2024/01/03 17:06:22;;;;;;;9.40;4.90;;;;;;;7.77;100.00;97144.05;271856;1278;22213;-87
2024/01/03 17:12:38;;;;;;;8.80;4.10;;;;;;;7.67;100.00;97132.99;270958;1277;22355;-87
2024/01/03 17:18:42;;;;;;;11.20;5.50;;;;;;;7.56;100.00;97117.05;271942;1276;22262;-87
2024/01/03 17:24:49;;;;;;;10.60;5.30;;;;;;;7.48;100.00;97110.18;270955;1278;22563;-87
2024/01/03 17:30:54;;;;;;;12.50;5.70;;;;;;;7.46;100.00;97108.88;270414;1278;22418;-87
2024/01/03 17:37:25;;;;;;;11.60;5.30;;;;;;;7.43;100.00;97106.48;271989;1278;22196;-85
2024/01/03 17:43:37;;;;;;;11.40;5.70;;;;;;;7.38;100.00;97101.45;271733;1277;22755;-87
2024/01/03 17:49:48;;;;;;;13.00;5.10;;;;;;;7.36;100.00;97090.74;271391;1277;22224;-85
2024/01/03 17:56:03;;;;;;;12.80;6.70;;;;;;;7.31;100.00;97082.52;256475;1278;20002152;-86
2024/01/03 18:02:51;;;;;;;17.00;6.10;;;;;;;7.28;100.00;97070.49;271672;1278;22174;-88
2024/01/03 18:09:09;;;;;;;16.10;7.20;;;;;;;7.26;100.00;97064.83;271581;1279;22368;-88
2024/01/03 18:15:47;;;;;;;19.20;9.20;;;;;;;7.22;100.00;97062.99;271617;1278;22607;-88
2024/01/03 18:22:10;;;;;;;15.60;8.50;;;;;;;7.15;100.00;97059.46;271176;1278;22352;-86
2024/01/03 18:28:23;;;;;;;17.10;8.50;;;;;;;7.12;100.00;97059.34;271982;1284;22209;-84
2024/01/03 18:34:43;;;;;;;12.80;7.30;;;;;;;7.08;100.00;97053.77;271561;1278;22765;-87
2024/01/03 18:41:15;;;;;;;10.00;5.50;;;;;;;7.05;100.00;97052.91;271993;1283;22246;-86
2024/01/03 18:47:37;;;;;;;12.30;5.10;;;;;;;7.03;100.00;97050.75;271773;1280;22326;-87
2024/01/03 18:54:14;;;;;;;11.50;5.10;;;;;;;7.07;100.00;97053.52;271690;1277;22332;-86
2024/01/03 19:00:24;;;;;;;8.30;4.70;;;;;;;7.12;100.00;97061.27;271670;1278;22295;-86
2024/01/03 19:06:27;;;;;;;12.20;4.80;;;;;;;7.10;100.00;97059.27;271511;1278;22190;-86
2024/01/03 19:12:33;;;;;;;9.90;4.80;;;;;;;7.08;100.00;97060.37;271754;1280;21928;-86
2024/01/03 19:18:52;;;;;;;9.40;4.80;;;;;;;7.05;100.00;97061.16;271711;1279;22396;-87
2024/01/03 19:25:14;;;;;;;12.60;5.70;;;;;;;7.05;100.00;97062.39;271540;1278;22370;-87
2024/01/03 19:31:52;;;;;;;;;;;;;;;;;;;;;
2024/01/03 19:46:31;;;;;;;4.60;1.50;;;;;;;7.76;100.00;97061.48;272054;1286;23421;-86
2024/01/03 19:52:54;;;;;;;2.30;1.30;;;;;;;7.93;100.00;97064.84;271784;1270;22201;-86
2024/01/03 19:59:54;;;;;;;3.70;1.50;;;;;;;8.09;100.00;97058.63;270729;1283;23457;-87
2024/01/03 20:05:58;;;;;;;2.30;1.40;;;;;;;8.22;100.00;97057.73;271819;1278;22502;-87
2024/01/03 20:12:11;;;;;;;6.70;2.20;;;;;;;8.20;100.00;97063.95;271654;1281;22192;-87
2024/01/03 20:18:18;;;;;;;3.80;1.60;;;;;;;8.21;100.00;97070.04;271734;1283;22203;-87
2024/01/03 20:24:23;;;;;;;5.70;2.20;;;;;;;8.22;100.00;97070.64;271571;1278;22376;-87
2024/01/03 20:30:29;;;;;;;6.60;2.60;;;;;;;8.16;100.00;97076.29;271792;1284;22277;-87
2024/01/03 20:36:33;;;;;;;10.30;4.10;;;;;;;7.94;100.00;97072.23;271430;1278;22521;-87
2024/01/03 20:42:40;;;;;;;10.00;4.00;;;;;;;7.70;100.00;97071.89;271547;1281;22196;-87
2024/01/03 20:48:42;;;;;;;7.40;3.70;;;;;;;7.52;100.00;97073.20;271444;1279;22573;-87
2024/01/03 20:54:44;;;;;;;9.30;3.90;;;;;;;7.37;100.00;97074.79;271491;1280;22183;-87
2024/01/03 21:00:48;;;;;;;7.90;3.80;;;;;;;7.25;100.00;97069.80;271602;1278;23622;-87
2024/01/03 21:06:50;;;;;;;11.40;4.10;;;;;;;7.14;100.00;97066.00;271467;1280;23533;-87
2024/01/03 21:12:57;;;;;;;9.50;3.70;;;;;;;7.00;100.00;97069.27;271396;1280;23432;-87
2024/01/03 21:19:00;;;;;;;7.80;3.80;;;;;;;6.90;100.00;97067.77;271671;1284;22207;-87
2024/01/03 21:25:06;;;;;;;10.40;3.90;;;;;;;6.87;100.00;97069.58;271525;1280;22213;-88
2024/01/03 21:31:12;;;;;;;10.70;3.50;;;;;;;6.88;100.00;97062.27;271450;1283;22257;-87
2024/01/03 21:37:16;;;;;;;5.50;3.20;;;;;;;6.92;100.00;97061.08;271422;1281;22205;-88
2024/01/03 21:43:23;;;;;;;8.30;3.30;;;;;;;6.88;100.00;97055.04;271450;1281;22217;-87
2024/01/03 21:49:32;;;;;;;8.90;4.00;;;;;;;6.82;100.00;97049.48;271355;1277;22382;-88
2024/01/03 21:55:34;;;;;;;8.10;3.60;;;;;;;6.75;100.00;97047.72;271392;1281;22321;-87
2024/01/03 22:01:36;;;;;;;7.40;3.10;;;;;;;6.72;100.00;97048.42;271419;1283;22271;-87
2024/01/03 22:07:40;;;;;;;7.10;3.20;;;;;;;6.67;100.00;97046.73;271583;1282;22240;-86
2024/01/03 22:13:46;;;;;;;7.40;3.10;;;;;;;6.70;100.00;97041.23;271672;1279;24248;-87
2024/01/03 22:19:50;;;;;;;5.20;2.60;;;;;;;6.81;100.00;97034.02;271449;1279;22193;-87
2024/01/03 22:25:52;;;;;;;8.50;3.50;;;;;;;6.94;100.00;97036.65;271442;1282;22200;-87
2024/01/03 22:31:54;;;;;;;11.80;4.10;;;;;;;7.04;100.00;97039.23;271725;1280;22323;-87
2024/01/03 22:37:56;;;;;;;7.00;3.00;;;;;;;7.09;100.00;97039.06;271774;1283;22211;-88
2024/01/03 22:44:01;;;;;;;5.40;2.80;;;;;;;7.16;100.00;97041.03;271749;1281;22340;-88
2024/01/03 22:50:08;;;;;;;6.90;2.40;;;;;;;7.22;100.00;97033.38;271690;1282;22202;-87
2024/01/03 22:56:10;;;;;;;6.20;2.30;;;;;;;7.27;100.00;97033.42;271805;1284;22287;-88
2024/01/03 23:02:12;;;;;;;4.70;1.90;;;;;;;7.34;100.00;97034.91;271685;1280;23112;-88
2024/01/03 23:08:14;;;;;;;4.80;2.20;;;;;;;7.41;100.00;97029.18;271660;1280;22390;-87
2024/01/03 23:14:16;;;;;;;4.60;1.90;;;;;;;7.46;100.00;97032.26;271755;1280;22288;-88
2024/01/03 23:20:18;;;;;;;6.40;2.00;;;;;;;7.53;100.00;97030.41;271730;1279;23019;-88
2024/01/03 23:26:29;;;;;;;4.00;2.00;;;;;;;7.62;100.00;97028.00;272029;1283;22173;-88
2024/01/03 23:32:36;;;;;;;2.80;1.20;;;;;;;7.67;100.00;97024.22;271172;1284;23105;-88
2024/01/03 23:38:48;;;;;;;2.30;0.80;;;;;;;7.73;100.00;97016.00;271340;1282;22251;-88
2024/01/03 23:44:52;;;;;;;2.40;1.20;;;;;;;7.73;100.00;97016.23;271260;1284;22254;-89
2024/01/03 23:50:56;;;;;;;3.00;1.20;;;;;;;7.69;100.00;97011.21;270783;1283;22396;-87
2024/01/03 23:57:15;;;;;;;2.40;1.30;;;;;;;7.58;100.00;97007.18;270411;1283;22264;-88
